Time;durP1;ratioP1;P1;durP2;ratioP2;P2;SDS_P1;SDS_P2;PMS_P1;PMS_P2;Temp;Humidity;BMP_temperature;BMP_pressure;BME280_temperature;BME280_humidity;BME280_pressure;Samples;Min_cycle;Max_cycle;Signal;HPM_P1;HPM_P2
2023/12/19 00:01:00;;;;;;;74.05;51.92;;;;;;;;;;5588316;31;34632;-74
2023/12/19 00:04:03;;;;;;;74.47;53.75;;;;;;;;;;5588369;31;35252;-74
2023/12/19 00:07:05;;;;;;;77.93;54.17;;;;;;;;;;5588412;31;35127;-74
2023/12/19 00:10:08;;;;;;;79.50;55.35;;;;;;;;;;5588320;31;34650;-74
2023/12/19 00:13:11;;;;;;;88.20;60.10;;;;;;;;;;5588326;31;34631;-74
2023/12/19 00:16:14;;;;;;;28.83;10.50;;;;;;;;;;5588109;31;34762;-74
2023/12/19 00:19:16;;;;;;;88.82;59.80;;;;;;;;;;5588124;31;34880;-74
2023/12/19 00:22:19;;;;;;;90.60;61.28;;;;;;;;;;5588501;31;34810;-74
2023/12/19 00:25:26;;;;;;;79.12;56.33;;;;;;;;;;5588104;31;35385;-74
2023/12/19 00:28:28;;;;;;;9.98;6.07;;;;;;;;;;5588150;31;34635;-74
2023/12/19 00:31:31;;;;;;;79.15;54.97;;;;;;;;;;5588143;31;34544;-74
2023/12/19 00:34:35;;;;;;;76.43;53.05;;;;;;;;;;5587969;31;34705;-74
2023/12/19 00:37:38;;;;;;;75.60;52.80;;;;;;;;;;5588303;31;35304;-74
2023/12/19 00:40:41;;;;;;;71.62;51.05;;;;;;;;;;5588060;31;34588;-74
2023/12/19 00:43:43;;;;;;;73.55;52.62;;;;;;;;;;5587868;31;35364;-74
2023/12/19 00:46:46;;;;;;;71.00;51.78;;;;;;;;;;5588234;31;34728;-74
2023/12/19 00:49:48;;;;;;;73.70;52.80;;;;;;;;;;5587596;31;35326;-73
2023/12/19 00:52:51;;;;;;;73.40;51.60;;;;;;;;;;5587747;31;35287;-74
2023/12/19 00:55:54;;;;;;;69.82;48.28;;;;;;;;;;5587705;31;34801;-74
2023/12/19 00:58:56;;;;;;;77.03;52.13;;;;;;;;;;5573966;31;35289;-74
2023/12/19 01:01:59;;;;;;;68.00;50.90;;;;;;;;;;5587657;31;34875;-74
2023/12/19 01:05:05;;;;;;;70.12;48.13;;;;;;;;;;5587517;31;35392;-74
2023/12/19 01:08:08;;;;;;;66.28;47.58;;;;;;;;;;5587532;31;35255;-74
2023/12/19 01:11:11;;;;;;;59.95;44.15;;;;;;;;;;5587402;31;34864;-74
2023/12/19 01:14:13;;;;;;;59.13;44.17;;;;;;;;;;5587280;31;35145;-74
2023/12/19 01:17:18;;;;;;;62.88;45.85;;;;;;;;;;5586692;31;34789;-74
2023/12/19 01:20:20;;;;;;;67.30;45.83;;;;;;;;;;5587390;31;34728;-74
2023/12/19 01:23:25;;;;;;;61.37;44.65;;;;;;;;;;5587182;31;34613;-74
2023/12/19 01:26:28;;;;;;;70.95;45.47;;;;;;;;;;5587592;31;35373;-74
2023/12/19 01:29:32;;;;;;;65.32;45.22;;;;;;;;;;5587424;31;35319;-74
2023/12/19 01:32:34;;;;;;;62.10;44.80;;;;;;;;;;5587163;31;34641;-74
2023/12/19 01:35:38;;;;;;;58.95;42.50;;;;;;;;;;5587093;31;34093;-74
2023/12/19 01:38:40;;;;;;;52.90;39.40;;;;;;;;;;5586917;31;35396;-73
2023/12/19 01:41:43;;;;;;;62.85;42.13;;;;;;;;;;5586757;31;35337;-73
2023/12/19 01:44:52;;;;;;;61.20;41.70;;;;;;;;;;5586803;31;34960;-73
2023/12/19 01:47:55;;;;;;;56.63;40.35;;;;;;;;;;5586801;31;34704;-74
2023/12/19 01:50:58;;;;;;;64.75;44.45;;;;;;;;;;5586697;31;35437;-74
2023/12/19 01:54:02;;;;;;;66.05;43.53;;;;;;;;;;5586685;31;34735;-74
2023/12/19 01:57:04;;;;;;;74.60;46.15;;;;;;;;;;5586883;31;34840;-74
2023/12/19 02:00:08;;;;;;;73.50;45.47;;;;;;;;;;5587483;31;35438;-73
2023/12/19 02:03:10;;;;;;;65.78;42.53;;;;;;;;;;5589313;31;34724;-74
2023/12/19 02:06:14;;;;;;;62.55;40.20;;;;;;;;;;5589867;31;34833;-74
2023/12/19 02:09:17;;;;;;;88.10;48.28;;;;;;;;;;5589370;31;34621;-74
2023/12/19 02:12:20;;;;;;;67.37;43.20;;;;;;;;;;5589272;31;35337;-74
2023/12/19 02:15:23;;;;;;;69.57;43.70;;;;;;;;;;5589213;31;34649;-74
2023/12/19 02:18:25;;;;;;;87.25;50.38;;;;;;;;;;5589524;31;34673;-74
2023/12/19 02:21:28;;;;;;;76.03;46.60;;;;;;;;;;5589644;31;34845;-75
2023/12/19 02:24:32;;;;;;;68.95;44.33;;;;;;;;;;5589643;31;35374;-74
2023/12/19 02:27:35;;;;;;;78.87;47.42;;;;;;;;;;5589116;31;35430;-74
2023/12/19 02:30:38;;;;;;;83.65;48.92;;;;;;;;;;5589454;31;34613;-75
2023/12/19 02:33:45;;;;;;;107.43;55.60;;;;;;;;;;5589029;31;34639;-74
2023/12/19 02:36:48;;;;;;;122.75;58.10;;;;;;;;;;5589049;31;34503;-74
2023/12/19 02:39:50;;;;;;;133.50;60.63;;;;;;;;;;5589070;31;34733;-74
2023/12/19 02:42:53;;;;;;;145.23;66.18;;;;;;;;;;5589079;31;35323;-74
2023/12/19 02:45:56;;;;;;;170.23;66.60;;;;;;;;;;5589019;31;35233;-74
2023/12/19 02:48:59;;;;;;;227.70;74.60;;;;;;;;;;5589263;31;34603;-74
2023/12/19 02:52:02;;;;;;;136.20;62.50;;;;;;;;;;5589062;31;35327;-74
2023/12/19 02:55:05;;;;;;;133.93;61.40;;;;;;;;;;5589025;31;35355;-74
2023/12/19 02:58:08;;;;;;;139.85;61.35;;;;;;;;;;5588935;31;35102;-74
2023/12/19 03:01:11;;;;;;;184.27;68.75;;;;;;;;;;5588167;31;34723;-75
2023/12/19 03:04:14;;;;;;;200.62;73.22;;;;;;;;;;5589294;31;34867;-74
2023/12/19 03:07:17;;;;;;;153.25;65.03;;;;;;;;;;5589175;31;34720;-74
2023/12/19 03:10:21;;;;;;;117.53;59.38;;;;;;;;;;5588894;31;34713;-74
2023/12/19 03:13:26;;;;;;;130.48;60.33;;;;;;;;;;5588906;31;35351;-73
2023/12/19 03:16:28;;;;;;;130.68;61.15;;;;;;;;;;5588694;31;34604;-74
2023/12/19 03:19:31;;;;;;;125.82;60.25;;;;;;;;;;5588739;31;34612;-74
2023/12/19 03:22:34;;;;;;;132.50;63.17;;;;;;;;;;5588741;31;34689;-74
2023/12/19 03:25:37;;;;;;;133.00;62.33;;;;;;;;;;5588707;31;34762;-76
2023/12/19 03:28:39;;;;;;;113.22;59.33;;;;;;;;;;5588825;31;34711;-74
2023/12/19 03:31:42;;;;;;;99.15;54.97;;;;;;;;;;5588835;31;35405;-75
2023/12/19 03:34:44;;;;;;;112.55;56.37;;;;;;;;;;5588766;31;34810;-73
2023/12/19 03:37:47;;;;;;;93.35;52.15;;;;;;;;;;5588548;31;34707;-73
2023/12/19 03:40:49;;;;;;;95.78;53.25;;;;;;;;;;5588583;31;34784;-74
2023/12/19 03:43:53;;;;;;;88.60;50.88;;;;;;;;;;5588258;31;35251;-75
2023/12/19 03:46:56;;;;;;;79.32;47.10;;;;;;;;;;5588595;31;35489;-74
2023/12/19 03:49:59;;;;;;;85.38;46.35;;;;;;;;;;5588603;31;35435;-75
2023/12/19 03:53:02;;;;;;;87.22;47.45;;;;;;;;;;5588471;31;34701;-74
2023/12/19 03:56:06;;;;;;;87.78;46.97;;;;;;;;;;5588519;31;34919;-74
2023/12/19 03:59:10;;;;;;;73.35;44.28;;;;;;;;;;5588628;31;35397;-75
2023/12/19 04:02:15;;;;;;;67.78;43.55;;;;;;;;;;5588425;31;34459;-74
2023/12/19 04:05:18;;;;;;;82.05;45.55;;;;;;;;;;5588530;31;34786;-75
2023/12/19 04:08:20;;;;;;;93.25;48.05;;;;;;;;;;5587670;31;35415;-74
2023/12/19 04:11:23;;;;;;;118.97;51.22;;;;;;;;;;5588758;31;34530;-75
2023/12/19 04:14:26;;;;;;;122.53;50.97;;;;;;;;;;5588437;31;35385;-74
2023/12/19 04:17:28;;;;;;;93.68;46.08;;;;;;;;;;5583145;31;154305;-74
2023/12/19 04:20:31;;;;;;;90.25;47.22;;;;;;;;;;5588344;31;34650;-75
2023/12/19 04:23:34;;;;;;;107.00;47.65;;;;;;;;;;5587891;31;35304;-74
2023/12/19 04:26:39;;;;;;;139.25;54.65;;;;;;;;;;5588193;31;34620;-75
2023/12/19 04:29:46;;;;;;;91.30;46.63;;;;;;;;;;5588220;31;34454;-74
2023/12/19 04:32:52;;;;;;;128.75;52.85;;;;;;;;;;5588120;31;35344;-73
2023/12/19 04:35:55;;;;;;;134.98;53.10;;;;;;;;;;5588029;31;34615;-74
2023/12/19 04:38:58;;;;;;;100.65;46.08;;;;;;;;;;5587939;31;34771;-74
2023/12/19 04:42:00;;;;;;;76.40;41.95;;;;;;;;;;5588037;31;35341;-74
2023/12/19 04:45:03;;;;;;;92.85;47.42;;;;;;;;;;5588110;31;34668;-74
2023/12/19 04:48:06;;;;;;;77.37;43.22;;;;;;;;;;5588303;31;35447;-73
2023/12/19 04:51:24;;;;;;;65.65;39.70;;;;;;;;;;5587892;31;35500;-74
2023/12/19 04:54:27;;;;;;;56.58;37.17;;;;;;;;;;5588199;31;34616;-76
2023/12/19 04:57:29;;;;;;;15.90;6.75;;;;;;;;;;5587771;31;35436;-74
2023/12/19 05:00:32;;;;;;;59.05;37.35;;;;;;;;;;5588191;31;35314;-74
2023/12/19 05:03:37;;;;;;;65.15;39.70;;;;;;;;;;5587735;31;35274;-74
2023/12/19 05:06:41;;;;;;;80.82;44.10;;;;;;;;;;5587604;31;35416;-74
2023/12/19 05:09:43;;;;;;;85.32;45.08;;;;;;;;;;5587079;31;35264;-75
2023/12/19 05:12:46;;;;;;;82.68;45.72;;;;;;;;;;5587556;31;35319;-74
2023/12/19 05:15:52;;;;;;;80.25;43.67;;;;;;;;;;5587491;31;34542;-74
2023/12/19 05:18:55;;;;;;;76.68;43.63;;;;;;;;;;5587619;31;35336;-74
2023/12/19 05:21:57;;;;;;;72.95;42.47;;;;;;;;;;5587520;31;34077;-74
2023/12/19 05:25:00;;;;;;;86.35;45.17;;;;;;;;;;5587611;31;35411;-74
2023/12/19 05:28:02;;;;;;;75.60;41.15;;;;;;;;;;5586426;31;34714;-75
2023/12/19 05:31:05;;;;;;;89.97;43.60;;;;;;;;;;5587170;31;34628;-76
2023/12/19 05:34:08;;;;;;;68.85;39.78;;;;;;;;;;5587200;31;34583;-73
2023/12/19 05:37:11;;;;;;;67.18;38.88;;;;;;;;;;5589674;31;35237;-74
2023/12/19 05:40:13;;;;;;;78.35;39.38;;;;;;;;;;5589630;31;34555;-75
2023/12/19 05:43:16;;;;;;;70.40;40.63;;;;;;;;;;5589861;31;34427;-75
2023/12/19 05:46:19;;;;;;;63.28;38.65;;;;;;;;;;5589581;31;34671;-74
2023/12/19 05:49:22;;;;;;;70.45;40.12;;;;;;;;;;5590124;31;34642;-75
2023/12/19 05:52:24;;;;;;;5.55;3.42;;;;;;;;;;5589533;31;34603;-75
2023/12/19 05:55:27;;;;;;;65.45;38.45;;;;;;;;;;5589144;31;34551;-74
2023/12/19 05:58:29;;;;;;;59.83;36.53;;;;;;;;;;5589620;31;35414;-74
2023/12/19 06:01:32;;;;;;;65.40;39.03;;;;;;;;;;5589436;31;35336;-74
2023/12/19 06:04:35;;;;;;;63.20;37.47;;;;;;;;;;5588764;31;34380;-74
2023/12/19 06:07:38;;;;;;;62.17;36.90;;;;;;;;;;5589098;31;35431;-74
2023/12/19 06:10:40;;;;;;;60.10;34.90;;;;;;;;;;5588844;31;34526;-73
2023/12/19 06:13:43;;;;;;;55.67;34.08;;;;;;;;;;5589313;31;35386;-74
2023/12/19 06:16:46;;;;;;;55.30;33.40;;;;;;;;;;5588810;31;34421;-73
2023/12/19 06:19:48;;;;;;;52.50;32.22;;;;;;;;;;5589258;31;34749;-73
2023/12/19 06:22:51;;;;;;;53.70;33.67;;;;;;;;;;5588982;31;34608;-73
2023/12/19 06:25:54;;;;;;;56.50;33.88;;;;;;;;;;5589136;31;35297;-73
2023/12/19 06:28:57;;;;;;;55.15;34.58;;;;;;;;;;5589014;31;34652;-73
2023/12/19 06:31:59;;;;;;;52.40;32.58;;;;;;;;;;5588929;31;34517;-74
2023/12/19 06:35:04;;;;;;;55.88;34.00;;;;;;;;;;5589144;31;35336;-73
2023/12/19 06:38:06;;;;;;;54.22;33.60;;;;;;;;;;5588154;31;33051;-73
2023/12/19 06:41:16;;;;;;;59.47;34.10;;;;;;;;;;5588571;31;35373;-73
2023/12/19 06:44:19;;;;;;;53.78;33.13;;;;;;;;;;5589101;31;35291;-73
2023/12/19 06:47:22;;;;;;;64.70;35.83;;;;;;;;;;5588341;31;34749;-73
2023/12/19 06:50:25;;;;;;;65.22;37.60;;;;;;;;;;5588625;31;34647;-73
2023/12/19 06:53:28;;;;;;;65.80;38.53;;;;;;;;;;5588458;31;34816;-74
2023/12/19 06:56:30;;;;;;;63.40;36.42;;;;;;;;;;5588009;31;34627;-74
2023/12/19 06:59:33;;;;;;;61.65;36.95;;;;;;;;;;5588420;31;35557;-74
2023/12/19 07:02:36;;;;;;;65.57;37.72;;;;;;;;;;5588577;31;34643;-74
2023/12/19 07:05:39;;;;;;;66.72;37.47;;;;;;;;;;5588268;31;34548;-74
2023/12/19 07:08:42;;;;;;;63.20;36.53;;;;;;;;;;5588639;31;34637;-74
2023/12/19 07:11:49;;;;;;;62.60;36.33;;;;;;;;;;5588918;31;34648;-74
2023/12/19 07:14:51;;;;;;;67.47;37.28;;;;;;;;;;5589088;31;34778;-74
2023/12/19 07:17:53;;;;;;;62.90;36.25;;;;;;;;;;5590040;31;35438;-74
2023/12/19 07:20:56;;;;;;;75.12;38.85;;;;;;;;;;5591551;31;34526;-74
2023/12/19 07:23:59;;;;;;;81.65;43.33;;;;;;;;;;5588087;31;34811;-74
2023/12/19 07:27:02;;;;;;;80.55;43.55;;;;;;;;;;5588369;31;34892;-75
2023/12/19 07:30:06;;;;;;;74.68;42.38;;;;;;;;;;5588662;31;34834;-74
2023/12/19 07:33:09;;;;;;;79.82;43.45;;;;;;;;;;5588737;31;35466;-74
2023/12/19 07:36:12;;;;;;;72.55;42.35;;;;;;;;;;5588406;31;34563;-75
2023/12/19 07:39:15;;;;;;;66.93;38.97;;;;;;;;;;5588199;31;35426;-75
2023/12/19 07:42:17;;;;;;;67.05;38.65;;;;;;;;;;5588332;31;34790;-75
2023/12/19 07:45:20;;;;;;;61.03;37.15;;;;;;;;;;5588280;31;34652;-74
2023/12/19 07:48:23;;;;;;;70.05;39.15;;;;;;;;;;5588354;31;34860;-75
2023/12/19 07:51:26;;;;;;;69.97;40.15;;;;;;;;;;5588378;31;34754;-74
2023/12/19 07:54:29;;;;;;;76.10;41.90;;;;;;;;;;5588536;31;34578;-75
2023/12/19 07:57:32;;;;;;;62.55;38.50;;;;;;;;;;5587112;31;35396;-74
2023/12/19 08:00:34;;;;;;;79.43;42.03;;;;;;;;;;5588583;31;34635;-74
2023/12/19 08:03:37;;;;;;;65.68;37.53;;;;;;;;;;5588137;31;34834;-75
2023/12/19 08:06:41;;;;;;;70.82;39.95;;;;;;;;;;5588132;31;35332;-75
2023/12/19 08:09:44;;;;;;;72.10;41.58;;;;;;;;;;5588286;31;34252;-75
2023/12/19 08:12:46;;;;;;;89.85;45.50;;;;;;;;;;5588362;31;34823;-75
2023/12/19 08:15:50;;;;;;;75.00;41.97;;;;;;;;;;5587703;31;34745;-75
2023/12/19 08:18:52;;;;;;;64.45;40.15;;;;;;;;;;5588163;31;34771;-75
2023/12/19 08:21:57;;;;;;;70.05;40.08;;;;;;;;;;5588230;31;34648;-73
2023/12/19 08:24:59;;;;;;;68.80;40.90;;;;;;;;;;5588590;31;34726;-73
2023/12/19 08:28:02;;;;;;;68.93;41.95;;;;;;;;;;5588118;31;35366;-73
2023/12/19 08:31:05;;;;;;;74.68;42.05;;;;;;;;;;5588044;31;34424;-74
2023/12/19 08:34:08;;;;;;;91.03;46.08;;;;;;;;;;5588143;31;35315;-71
2023/12/19 08:37:11;;;;;;;82.78;43.63;;;;;;;;;;5587894;31;34672;-72
2023/12/19 08:40:14;;;;;;;82.18;45.00;;;;;;;;;;5587727;31;35449;-71
2023/12/19 08:43:19;;;;;;;90.47;42.45;;;;;;;;;;5587936;31;35295;-72
2023/12/19 08:46:24;;;;;;;83.43;43.75;;;;;;;;;;5586764;31;34673;-71
2023/12/19 08:49:26;;;;;;;86.05;45.38;;;;;;;;;;5587910;31;34733;-72
2023/12/19 08:52:29;;;;;;;84.68;46.45;;;;;;;;;;5587741;31;34911;-71
2023/12/19 08:55:32;;;;;;;89.35;47.53;;;;;;;;;;5587757;31;35396;-71
2023/12/19 08:58:34;;;;;;;88.62;45.97;;;;;;;;;;5586984;31;34824;-71
2023/12/19 09:01:37;;;;;;;72.00;42.65;;;;;;;;;;5587533;31;35414;-71
2023/12/19 09:04:40;;;;;;;86.78;44.22;;;;;;;;;;5587539;31;35382;-71
2023/12/19 09:07:42;;;;;;;71.30;41.83;;;;;;;;;;5587706;31;34614;-71
2023/12/19 09:10:46;;;;;;;74.03;42.88;;;;;;;;;;5587281;31;35358;-71
2023/12/19 09:13:49;;;;;;;72.00;42.42;;;;;;;;;;5586957;31;34776;-71
2023/12/19 09:16:51;;;;;;;77.95;42.53;;;;;;;;;;5586670;31;34694;-71
2023/12/19 09:19:55;;;;;;;69.85;42.58;;;;;;;;;;5587287;31;35410;-71
2023/12/19 09:22:59;;;;;;;84.53;44.45;;;;;;;;;;5587096;31;34760;-71
2023/12/19 09:26:01;;;;;;;81.68;44.78;;;;;;;;;;5587254;31;34828;-72
2023/12/19 09:29:05;;;;;;;77.45;43.87;;;;;;;;;;5587236;31;34547;-72
2023/12/19 09:32:07;;;;;;;70.87;42.55;;;;;;;;;;5587507;31;34649;-73
2023/12/19 09:35:12;;;;;;;66.87;39.90;;;;;;;;;;5587207;31;35272;-73
2023/12/19 09:38:15;;;;;;;78.53;44.05;;;;;;;;;;5586959;31;35423;-72
2023/12/19 09:41:18;;;;;;;66.75;40.17;;;;;;;;;;5586896;31;34743;-71
2023/12/19 09:44:21;;;;;;;72.10;42.72;;;;;;;;;;5586864;31;34720;-73
2023/12/19 09:47:29;;;;;;;76.40;46.00;;;;;;;;;;5586806;31;35337;-72
2023/12/19 09:50:32;;;;;;;74.82;44.55;;;;;;;;;;5586698;31;34747;-72
2023/12/19 09:53:34;;;;;;;78.25;44.17;;;;;;;;;;5586580;31;34838;-73
2023/12/19 09:56:42;;;;;;;75.57;45.38;;;;;;;;;;5586347;31;34584;-73
2023/12/19 09:59:46;;;;;;;73.97;44.78;;;;;;;;;;5585907;31;35383;-72
2023/12/19 10:02:58;;;;;;;80.65;47.90;;;;;;;;;;5586437;31;35314;-72
2023/12/19 10:06:01;;;;;;;80.70;47.38;;;;;;;;;;5586290;31;35202;-71
2023/12/19 10:09:04;;;;;;;86.50;50.30;;;;;;;;;;5586394;31;34746;-73
2023/12/19 10:12:09;;;;;;;83.20;49.40;;;;;;;;;;5585543;31;35291;-72
2023/12/19 10:15:13;;;;;;;83.22;50.17;;;;;;;;;;5585453;31;34565;-73
2023/12/19 10:18:18;;;;;;;89.37;50.75;;;;;;;;;;5585234;31;34703;-72
2023/12/19 10:21:32;;;;;;;91.37;51.42;;;;;;;;;;5587139;31;35347;-72
2023/12/19 10:24:36;;;;;;;90.35;50.72;;;;;;;;;;5589120;31;34890;-72
2023/12/19 10:27:38;;;;;;;94.00;52.62;;;;;;;;;;5588846;31;34619;-72
2023/12/19 10:30:42;;;;;;;84.20;51.47;;;;;;;;;;5589198;31;35330;-73
2023/12/19 10:33:48;;;;;;;93.10;52.75;;;;;;;;;;5588921;31;34887;-72
2023/12/19 10:36:52;;;;;;;91.55;52.53;;;;;;;;;;5589132;31;34966;-72
2023/12/19 10:40:12;;;;;;;85.65;50.92;;;;;;;;;;5589034;31;34684;-71
2023/12/19 10:43:15;;;;;;;88.53;51.80;;;;;;;;;;5589242;31;35392;-73
2023/12/19 10:46:18;;;;;;;94.10;50.95;;;;;;;;;;5589195;31;34578;-71
2023/12/19 10:49:21;;;;;;;88.05;50.22;;;;;;;;;;5589125;31;35469;-71
2023/12/19 10:52:26;;;;;;;89.22;51.03;;;;;;;;;;5589233;31;35394;-72
2023/12/19 10:55:33;;;;;;;84.05;49.30;;;;;;;;;;5588819;31;34550;-71
2023/12/19 10:58:39;;;;;;;89.72;51.40;;;;;;;;;;5588409;31;35365;-71
2023/12/19 11:01:42;;;;;;;95.62;52.45;;;;;;;;;;5588700;31;34681;-71
2023/12/19 11:04:50;;;;;;;90.85;52.35;;;;;;;;;;5591204;31;35262;-70
2023/12/19 11:07:57;;;;;;;86.65;51.88;;;;;;;;;;5589107;31;34866;-72
2023/12/19 11:11:09;;;;;;;89.03;50.53;;;;;;;;;;5589057;31;35436;-72
2023/12/19 11:14:13;;;;;;;87.22;49.55;;;;;;;;;;5588917;31;34823;-71
2023/12/19 11:17:19;;;;;;;83.20;50.10;;;;;;;;;;5588541;31;35369;-72
2023/12/19 11:20:27;;;;;;;86.63;50.50;;;;;;;;;;5588762;31;35389;-72
2023/12/19 11:23:49;;;;;;;87.05;51.65;;;;;;;;;;5588572;31;34614;-72
2023/12/19 11:26:52;;;;;;;88.62;50.63;;;;;;;;;;5587920;31;34552;-72
2023/12/19 11:29:55;;;;;;;92.75;54.03;;;;;;;;;;5588582;31;34679;-72
2023/12/19 11:32:58;;;;;;;93.45;54.22;;;;;;;;;;5587492;31;34472;-71
2023/12/19 11:36:11;;;;;;;95.50;53.05;;;;;;;;;;5588519;31;34570;-71
2023/12/19 11:39:24;;;;;;;112.62;57.53;;;;;;;;;;5588461;31;35344;-71
2023/12/19 11:42:39;;;;;;;103.18;56.80;;;;;;;;;;5588499;31;34881;-72
2023/12/19 11:45:43;;;;;;;123.80;60.55;;;;;;;;;;5588531;31;34563;-73
2023/12/19 11:48:49;;;;;;;100.57;55.45;;;;;;;;;;5588549;31;34182;-71
2023/12/19 11:51:55;;;;;;;102.55;57.85;;;;;;;;;;5588453;31;35206;-72
2023/12/19 11:54:58;;;;;;;107.50;57.58;;;;;;;;;;5587548;31;34676;-71
2023/12/19 11:58:11;;;;;;;103.22;56.53;;;;;;;;;;5588588;31;35291;-71
2023/12/19 12:01:13;;;;;;;100.15;57.38;;;;;;;;;;5588377;31;34425;-72
2023/12/19 12:04:19;;;;;;;97.80;57.83;;;;;;;;;;5587496;31;35315;-71
2023/12/19 12:07:23;;;;;;;90.78;53.08;;;;;;;;;;5588213;31;35367;-71
2023/12/19 12:10:28;;;;;;;86.90;52.25;;;;;;;;;;5588435;31;35390;-71
2023/12/19 12:13:32;;;;;;;93.10;54.63;;;;;;;;;;5588362;31;34205;-71
2023/12/19 12:16:36;;;;;;;94.25;54.97;;;;;;;;;;5588421;31;34615;-70
2023/12/19 12:19:38;;;;;;;98.15;57.58;;;;;;;;;;5588105;31;34817;-71
2023/12/19 12:22:43;;;;;;;103.93;60.33;;;;;;;;;;5588355;31;33941;-70
2023/12/19 12:25:55;;;;;;;97.72;58.15;;;;;;;;;;5588083;31;34667;-73
2023/12/19 12:28:58;;;;;;;102.87;59.30;;;;;;;;;;5587862;31;34567;-72
2023/12/19 12:32:00;;;;;;;93.18;54.72;;;;;;;;;;5588160;31;35325;-71
2023/12/19 12:35:23;;;;;;;91.60;55.40;;;;;;;;;;5588330;31;34649;-72
2023/12/19 12:38:26;;;;;;;99.18;58.95;;;;;;;;;;5588111;31;34827;-73
2023/12/19 12:41:30;;;;;;;95.72;58.05;;;;;;;;;;5588040;31;34992;-71
2023/12/19 12:44:33;;;;;;;96.43;58.53;;;;;;;;;;5587473;31;34646;-71
2023/12/19 12:47:39;;;;;;;97.10;57.20;;;;;;;;;;5587318;31;34665;-71
2023/12/19 12:50:41;;;;;;;101.00;59.78;;;;;;;;;;5588007;31;34575;-71
2023/12/19 12:53:45;;;;;;;107.35;61.85;;;;;;;;;;5588237;31;35343;-71
2023/12/19 12:56:48;;;;;;;99.32;59.97;;;;;;;;;;5587828;31;35379;-71
2023/12/19 12:59:51;;;;;;;103.62;61.30;;;;;;;;;;5587751;31;34610;-71
2023/12/19 13:02:54;;;;;;;108.93;62.25;;;;;;;;;;5587505;31;35334;-71
2023/12/19 13:06:00;;;;;;;113.30;64.75;;;;;;;;;;5587565;31;35360;-71
2023/12/19 13:09:04;;;;;;;102.35;60.58;;;;;;;;;;5573956;31;34842;-71
2023/12/19 13:12:09;;;;;;;101.47;58.78;;;;;;;;;;5586897;31;35262;-71
2023/12/19 13:15:13;;;;;;;116.43;64.65;;;;;;;;;;5587287;31;34873;-70
2023/12/19 13:18:17;;;;;;;121.70;67.40;;;;;;;;;;5587510;31;34587;-71
2023/12/19 13:21:19;;;;;;;117.57;66.55;;;;;;;;;;5586777;31;34642;-71
2023/12/19 13:24:24;;;;;;;118.53;67.45;;;;;;;;;;5587149;31;34738;-70
2023/12/19 13:27:27;;;;;;;117.82;65.45;;;;;;;;;;5587227;31;34684;-71
2023/12/19 13:30:31;;;;;;;128.48;65.75;;;;;;;;;;5587290;31;35343;-72
2023/12/19 13:33:34;;;;;;;108.35;61.30;;;;;;;;;;5587589;31;34667;-71
2023/12/19 13:36:38;;;;;;;123.82;66.28;;;;;;;;;;5587142;31;35217;-71
2023/12/19 13:39:44;;;;;;;119.75;66.55;;;;;;;;;;5586840;31;34673;-71
2023/12/19 13:42:47;;;;;;;122.50;67.03;;;;;;;;;;5586976;31;34761;-71
2023/12/19 13:45:49;;;;;;;120.57;67.25;;;;;;;;;;5587071;31;35338;-71
2023/12/19 13:48:52;;;;;;;126.12;68.57;;;;;;;;;;5586635;31;35398;-71
2023/12/19 13:51:56;;;;;;;120.90;64.85;;;;;;;;;;5586624;31;35325;-71
2023/12/19 13:54:59;;;;;;;114.28;63.30;;;;;;;;;;5585961;31;34538;-70
2023/12/19 13:58:02;;;;;;;108.12;62.08;;;;;;;;;;5589047;31;34750;-70
2023/12/19 14:01:08;;;;;;;113.30;62.33;;;;;;;;;;5589294;31;34702;-71
2023/12/19 14:04:20;;;;;;;107.05;60.33;;;;;;;;;;5589388;31;34755;-70
2023/12/19 14:07:24;;;;;;;123.85;66.03;;;;;;;;;;5589782;31;35404;-71
2023/12/19 14:10:29;;;;;;;134.70;68.80;;;;;;;;;;5589017;31;35382;-71
2023/12/19 14:13:31;;;;;;;133.00;68.10;;;;;;;;;;5588380;31;34818;-71
2023/12/19 14:16:35;;;;;;;133.55;68.55;;;;;;;;;;5588883;31;35428;-70
2023/12/19 14:19:39;;;;;;;127.22;67.72;;;;;;;;;;5589256;31;34558;-71
2023/12/19 14:22:42;;;;;;;143.73;69.07;;;;;;;;;;5589207;31;35390;-71
2023/12/19 14:25:44;;;;;;;150.30;70.37;;;;;;;;;;5589084;31;35276;-70
2023/12/19 14:28:47;;;;;;;122.57;64.28;;;;;;;;;;5588119;31;34870;-72
2023/12/19 14:31:50;;;;;;;132.60;67.22;;;;;;;;;;5588672;31;34576;-69
2023/12/19 14:34:55;;;;;;;148.95;68.43;;;;;;;;;;5588839;31;34766;-72
2023/12/19 14:38:01;;;;;;;134.98;64.43;;;;;;;;;;5589007;31;35307;-70
2023/12/19 14:41:04;;;;;;;144.27;66.60;;;;;;;;;;5589002;31;34672;-71
2023/12/19 14:44:07;;;;;;;136.93;66.55;;;;;;;;;;5588868;31;34600;-70
2023/12/19 14:47:11;;;;;;;141.82;67.53;;;;;;;;;;5588170;31;34539;-70
2023/12/19 14:50:14;;;;;;;139.75;67.60;;;;;;;;;;5589085;31;34649;-70
2023/12/19 14:53:18;;;;;;;151.43;69.97;;;;;;;;;;5589235;31;34558;-71
2023/12/19 14:56:21;;;;;;;136.27;66.20;;;;;;;;;;5589267;31;34884;-72
2023/12/19 14:59:24;;;;;;;130.25;64.35;;;;;;;;;;5588797;31;34084;-70
2023/12/19 15:02:27;;;;;;;149.95;68.07;;;;;;;;;;5588758;31;34603;-71
2023/12/19 15:05:32;;;;;;;149.98;68.60;;;;;;;;;;5588490;31;34586;-71
2023/12/19 15:08:35;;;;;;;146.30;67.37;;;;;;;;;;5588249;31;34824;-70
2023/12/19 15:11:40;;;;;;;149.55;67.95;;;;;;;;;;5588339;31;34839;-70
2023/12/19 15:14:46;;;;;;;174.48;69.65;;;;;;;;;;5588738;31;34426;-69
2023/12/19 15:17:53;;;;;;;200.70;74.45;;;;;;;;;;5588584;31;35398;-71
2023/12/19 15:20:56;;;;;;;167.43;70.72;;;;;;;;;;5588148;31;34732;-70
2023/12/19 15:23:59;;;;;;;166.90;68.78;;;;;;;;;;5588331;31;34704;-70
2023/12/19 15:27:02;;;;;;;178.30;73.20;;;;;;;;;;5588084;31;34757;-71
2023/12/19 15:30:05;;;;;;;154.20;69.47;;;;;;;;;;5587414;31;35546;-70
2023/12/19 15:33:13;;;;;;;180.87;69.03;;;;;;;;;;5588557;31;35123;-71
2023/12/19 15:36:18;;;;;;;169.07;67.85;;;;;;;;;;5588498;31;35312;-71
2023/12/19 15:39:20;;;;;;;193.70;67.80;;;;;;;;;;5588144;31;34949;-72
2023/12/19 15:42:23;;;;;;;165.70;63.58;;;;;;;;;;5588035;31;34566;-71
2023/12/19 15:45:27;;;;;;;156.18;65.18;;;;;;;;;;5588139;31;35095;-71
2023/12/19 15:48:30;;;;;;;208.90;70.87;;;;;;;;;;5586518;31;34894;-71
2023/12/19 15:51:35;;;;;;;219.00;72.55;;;;;;;;;;5586737;31;34532;-71
2023/12/19 15:54:41;;;;;;;238.25;75.18;;;;;;;;;;5588091;31;34751;-71
2023/12/19 15:57:44;;;;;;;208.20;68.37;;;;;;;;;;5588302;31;35291;-71
2023/12/19 16:00:49;;;;;;;210.93;64.65;;;;;;;;;;5588154;31;35315;-71
2023/12/19 16:03:51;;;;;;;155.87;57.15;;;;;;;;;;5588059;31;34549;-70
2023/12/19 16:06:54;;;;;;;189.27;59.85;;;;;;;;;;5587839;31;34890;-72
2023/12/19 16:09:57;;;;;;;310.52;66.50;;;;;;;;;;5588139;31;34479;-71
2023/12/19 16:13:00;;;;;;;188.93;63.72;;;;;;;;;;5588179;31;34564;-71
2023/12/19 16:16:03;;;;;;;330.98;71.65;;;;;;;;;;5587932;31;35275;-71
2023/12/19 16:19:06;;;;;;;175.48;60.67;;;;;;;;;;5573368;31;34659;-71
2023/12/19 16:22:11;;;;;;;176.45;57.85;;;;;;;;;;5587318;31;34747;-70
2023/12/19 16:25:14;;;;;;;230.05;65.35;;;;;;;;;;5587759;31;35439;-71
2023/12/19 16:28:17;;;;;;;190.93;62.60;;;;;;;;;;5587780;31;34705;-71
2023/12/19 16:31:24;;;;;;;227.85;66.05;;;;;;;;;;5588534;31;34982;-71
2023/12/19 16:34:27;;;;;;;401.48;74.18;;;;;;;;;;5588166;31;34734;-71
2023/12/19 16:37:30;;;;;;;307.70;67.72;;;;;;;;;;5587242;31;34873;-70
2023/12/19 16:40:35;;;;;;;371.75;72.20;;;;;;;;;;5588007;31;34772;-70
2023/12/19 16:43:43;;;;;;;194.65;63.38;;;;;;;;;;5588123;31;34540;-71
2023/12/19 16:46:46;;;;;;;250.60;68.25;;;;;;;;;;5588053;31;34591;-70
2023/12/19 16:49:53;;;;;;;110.40;52.67;;;;;;;;;;5587963;31;35217;-71
2023/12/19 16:52:57;;;;;;;139.75;55.95;;;;;;;;;;5587806;31;35145;-70
2023/12/19 16:56:00;;;;;;;137.68;56.00;;;;;;;;;;5586853;31;34802;-71
2023/12/19 16:59:03;;;;;;;272.83;69.65;;;;;;;;;;5587605;31;34502;-72
2023/12/19 17:02:05;;;;;;;207.00;62.80;;;;;;;;;;5586989;31;34539;-70
2023/12/19 17:05:12;;;;;;;185.75;65.90;;;;;;;;;;5587496;31;35213;-70
2023/12/19 17:08:15;;;;;;;210.38;67.70;;;;;;;;;;5586893;31;35326;-71
2023/12/19 17:11:20;;;;;;;183.82;64.43;;;;;;;;;;5587509;31;34509;-71
2023/12/19 17:14:26;;;;;;;263.42;68.03;;;;;;;;;;5587015;31;35380;-71
2023/12/19 17:17:28;;;;;;;165.02;57.88;;;;;;;;;;5587458;31;35271;-72
2023/12/19 17:20:31;;;;;;;190.98;62.65;;;;;;;;;;5587228;31;34735;-70
2023/12/19 17:23:36;;;;;;;167.35;60.40;;;;;;;;;;5587303;31;34622;-70
2023/12/19 17:26:47;;;;;;;154.93;57.13;;;;;;;;;;5587132;31;35349;-70
2023/12/19 17:29:53;;;;;;;175.27;60.38;;;;;;;;;;5587765;31;34567;-71
2023/12/19 17:32:55;;;;;;;188.60;58.13;;;;;;;;;;5589510;31;34602;-71
2023/12/19 17:36:03;;;;;;;174.23;59.25;;;;;;;;;;5589604;31;35188;-71
2023/12/19 17:39:06;;;;;;;153.43;56.50;;;;;;;;;;5589757;31;34605;-71
2023/12/19 17:42:09;;;;;;;231.85;61.45;;;;;;;;;;5589789;31;34676;-71